Time;durP1;ratioP1;P1;durP2;ratioP2;P2;SDS_P1;SDS_P2;PMS_P1;PMS_P2;Temp;Humidity;BMP_temperature;BMP_pressure;BME280_temperature;BME280_humidity;BME280_pressure;Samples;Min_cycle;Max_cycle;Signal;HPM_P1;HPM_P2
2024/02/17 00:00:37;;;;;;;;;;;;;;;9.29;100.00;102430.56;5097104;28;20242;-80
2024/02/17 00:03:02;;;;;;;;;;;;;;;9.31;100.00;102432.28;5094699;28;19959;-79
2024/02/17 00:05:27;;;;;;;;;;;;;;;9.30;100.00;102435.78;5093775;28;19938;-79
2024/02/17 00:07:53;;;;;;;;;;;;;;;9.30;100.00;102433.19;5088881;28;19927;-79
2024/02/17 00:10:18;;;;;;;;;;;;;;;9.27;100.00;102437.56;5062530;28;20241;-79
2024/02/17 00:12:43;;;;;;;;;;;;;;;9.23;100.00;102441.97;5094645;28;19986;-79
2024/02/17 00:15:09;;;;;;;;;;;;;;;9.18;100.00;102443.75;5084361;28;19916;-79
2024/02/17 00:17:34;;;;;;;;;;;;;;;9.21;100.00;102448.97;5079981;28;19928;-80
2024/02/17 00:19:59;;;;;;;;;;;;;;;9.18;100.00;102444.59;5092304;28;19920;-79
2024/02/17 00:22:25;;;;;;;;;;;;;;;9.20;100.00;102452.44;5058619;28;19916;-79
2024/02/17 00:24:50;;;;;;;;;;;;;;;9.19;100.00;102448.09;5079673;28;19920;-79
2024/02/17 00:27:15;;;;;;;;;;;;;;;9.23;100.00;102452.41;5084183;28;19942;-79
2024/02/17 00:29:41;;;;;;;;;;;;;;;9.26;100.00;102451.50;5078588;28;20115;-79
2024/02/17 00:32:06;;;;;;;;;;;;;;;9.19;100.00;102455.94;5079833;28;19934;-79
2024/02/17 00:34:32;;;;;;;;;;;;;;;9.17;100.00;102461.19;5097806;28;20269;-79
2024/02/17 00:36:57;;;;;;;;;;;;;;;9.14;100.00;102465.56;5090247;28;19920;-80
2024/02/17 00:39:22;;;;;;;;;;;;;;;9.11;100.00;102469.06;5078856;28;20161;-80
2024/02/17 00:41:47;;;;;;;;;;;;;;;9.13;100.00;102463.81;5073628;28;19920;-79
2024/02/17 00:44:13;;;;;;;;;;;;;;;9.12;100.00;102464.72;5077797;28;20003;-79
2024/02/17 00:46:38;;;;;;;;;;;;;;;9.16;100.00;102471.66;5087298;28;19920;-80
2024/02/17 00:49:03;;;;;;;;;;;;;;;9.18;100.00;102465.50;5079755;28;19916;-79
2024/02/17 00:51:28;;;;;;;;;;;;;;;9.18;100.00;102470.75;5098609;28;19920;-79
2024/02/17 00:53:54;;;;;;;;;;;;;;;9.17;100.00;102476.88;5098258;28;20203;-79
2024/02/17 00:56:22;;;;;;;;;;;;;;;9.22;100.00;102482.03;5098077;28;19920;-80
2024/02/17 00:58:47;;;;;;;;;;;;;;;9.23;100.00;102484.66;5098618;28;19915;-80
2024/02/17 01:01:13;;;;;;;;;;;;;;;9.26;100.00;102480.25;5087947;28;19920;-79
2024/02/17 01:03:38;;;;;;;;;;;;;;;9.29;100.00;102486.34;5077479;28;19977;-79
2024/02/17 01:06:03;;;;;;;;;;;;;;;9.27;100.00;102485.50;5060780;28;20317;-79
2024/02/17 01:08:29;;;;;;;;;;;;;;;9.26;100.00;102489.00;5079358;28;19983;-79
2024/02/17 01:10:54;;;;;;;;;;;;;;;9.28;100.00;102492.47;5094201;28;20266;-79
2024/02/17 01:13:19;;;;;;;;;;;;;;;9.28;100.00;102492.47;5097378;28;20240;-79
2024/02/17 01:15:45;;;;;;;;;;;;;;;9.24;100.00;102493.38;5079088;28;20203;-79
2024/02/17 01:18:10;;;;;;;;;;;;;;;9.20;100.00;102503.00;5095403;28;19924;-80
2024/02/17 01:20:36;;;;;;;;;;;;;;;9.19;100.00;102513.47;5078936;28;19920;-79
2024/02/17 01:23:01;;;;;;;;;;;;;;;9.18;100.00;102519.56;5081381;28;20455;-80
2024/02/17 01:25:27;;;;;;;;;;;;;;;9.20;100.00;102513.44;5077729;28;20024;-79
2024/02/17 01:27:52;;;;;;;;;;;;;;;9.24;100.00;102524.75;5080814;28;19912;-79
2024/02/17 01:30:17;;;;;;;;;;;;;;;9.26;100.00;102517.75;5077846;28;20231;-80
2024/02/17 01:32:43;;;;;;;;;;;;;;;9.29;100.00;102525.56;5065913;28;20103;-79
2024/02/17 01:35:08;;;;;;;;;;;;;;;9.29;100.00;102527.31;5087937;28;20752;-80
2024/02/17 01:37:33;;;;;;;;;;;;;;;9.25;100.00;102529.09;5085961;28;19908;-79
2024/02/17 01:39:59;;;;;;;;;;;;;;;9.28;100.00;102531.69;5086899;28;19996;-79
2024/02/17 01:42:24;;;;;;;;;;;;;;;9.29;100.00;102532.53;5096996;28;19922;-79
2024/02/17 01:44:50;;;;;;;;;;;;;;;9.33;100.00;102529.00;5097425;28;19943;-79
2024/02/17 01:47:16;;;;;;;;;;;;;;;9.33;100.00;102535.13;5097330;28;19935;-79
2024/02/17 01:49:42;;;;;;;;;;;;;;;9.32;100.00;102533.38;5092867;28;19920;-79
2024/02/17 01:52:08;;;;;;;;;;;;;;;9.33;100.00;102537.75;5084632;28;19923;-79
2024/02/17 01:54:33;;;;;;;;;;;;;;;9.36;100.00;102536.84;5078782;28;19943;-79
2024/02/17 01:56:59;;;;;;;;;;;;;;;9.35;100.00;102537.69;5083226;28;19920;-79
2024/02/17 01:59:25;;;;;;;;;;;;;;;9.31;100.00;102544.72;5082614;28;19927;-80
2024/02/17 02:01:51;;;;;;;;;;;;;;;9.32;100.00;102550.81;5074788;28;20112;-79
2024/02/17 02:04:16;;;;;;;;;;;;;;;9.29;100.00;102550.84;5076652;28;20233;-79
2024/02/17 02:06:42;;;;;;;;;;;;;;;9.33;100.00;102557.78;5076764;28;19947;-80
2024/02/17 02:09:07;;;;;;;;;;;;;;;9.29;100.00;102562.16;5076641;28;19985;-79
2024/02/17 02:11:33;;;;;;;;;;;;;;;9.30;100.00;102563.91;5096005;28;19927;-79
2024/02/17 02:14:14;;;;;;;;;;;;;;;9.23;100.00;102570.06;5090710;28;20149;-80
2024/02/17 02:16:40;;;;;;;;;;;;;;;9.21;100.00;102577.06;5058405;28;19916;-79
2024/02/17 02:19:05;;;;;;;;;;;;;;;9.25;100.00;102583.13;5058745;28;19920;-79
2024/02/17 02:21:30;;;;;;;;;;;;;;;9.24;100.00;102577.03;5094879;28;19943;-79
2024/02/17 02:23:56;;;;;;;;;;;;;;;9.25;100.00;102589.22;5070951;28;19924;-79
2024/02/17 02:26:23;;;;;;;;;;;;;;;9.29;100.00;102588.31;5088001;28;20023;-80
2024/02/17 02:28:48;;;;;;;;;;;;;;;9.33;100.00;102583.91;5083386;28;19927;-79
2024/02/17 02:31:13;;;;;;;;;;;;;;;9.31;100.00;102590.91;5076368;28;19924;-79
2024/02/17 02:33:39;;;;;;;;;;;;;;;9.33;100.00;102591.75;5059303;28;19916;-79
2024/02/17 02:36:04;;;;;;;;;;;;;;;9.34;100.00;102603.97;5090929;28;20157;-80
2024/02/17 02:38:30;;;;;;;;;;;;;;;9.36;100.00;102595.22;5076562;28;19908;-80
2024/02/17 02:40:55;;;;;;;;;;;;;;;9.36;100.00;102600.44;5093132;28;19965;-79
2024/02/17 02:43:20;;;;;;;;;;;;;;;9.36;100.00;102605.69;5092271;28;20097;-80
2024/02/17 02:45:46;;;;;;;;;;;;;;;9.38;100.00;102603.06;5096220;28;19963;-80
2024/02/17 02:48:11;;;;;;;;;;;;;;;9.36;100.00;102602.22;5090003;28;19921;-80
2024/02/17 02:50:36;;;;;;;;;;;;;;;9.34;100.00;102603.97;5074639;28;19923;-79
2024/02/17 02:53:03;;;;;;;;;;;;;;;9.32;100.00;102603.97;5095666;28;19927;-79
2024/02/17 02:55:28;;;;;;;;;;;;;;;9.30;100.00;102610.09;5080279;28;19920;-79
2024/02/17 02:57:53;;;;;;;;;;;;;;;9.29;100.00;102606.59;5076160;28;20198;-79
2024/02/17 03:00:18;;;;;;;;;;;;;;;9.31;100.00;102614.44;5085325;28;20258;-79
2024/02/17 03:02:44;;;;;;;;;;;;;;;9.22;100.00;102623.22;5067328;28;19921;-79
2024/02/17 03:05:09;;;;;;;;;;;;;;;9.21;100.00;102630.19;5057772;28;19916;-80
2024/02/17 03:07:34;;;;;;;;;;;;;;;9.22;100.00;102621.47;5085545;28;19965;-79
2024/02/17 03:10:00;;;;;;;;;;;;;;;9.24;100.00;102634.56;5077042;28;19947;-79
2024/02/17 03:12:26;;;;;;;;;;;;;;;9.23;100.00;102636.28;5057862;28;20123;-79
2024/02/17 03:14:51;;;;;;;;;;;;;;;9.17;100.00;102636.31;5066484;28;19916;-79
2024/02/17 03:17:16;;;;;;;;;;;;;;;9.17;100.00;102635.47;5095613;28;20247;-80
2024/02/17 03:19:42;;;;;;;;;;;;;;;9.20;100.00;102643.28;5095418;28;19916;-79
2024/02/17 03:22:07;;;;;;;;;;;;;;;9.22;100.00;102645.00;5087976;28;20178;-79
2024/02/17 03:24:32;;;;;;;;;;;;;;;9.21;100.00;102642.41;5058173;28;19916;-80
2024/02/17 03:26:57;;;;;;;;;;;;;;;9.18;100.00;102653.72;5073222;28;20226;-79
2024/02/17 03:29:23;;;;;;;;;;;;;;;9.24;100.00;102650.25;5090265;28;19915;-79
2024/02/17 03:31:48;;;;;;;;;;;;;;;9.24;100.00;102647.63;5079884;28;19927;-79
2024/02/17 03:34:13;;;;;;;;;;;;;;;9.24;100.00;102652.84;5072931;28;20011;-79
2024/02/17 03:36:39;;;;;;;;;;;;;;;9.26;100.00;102653.72;5075713;28;19927;-79
2024/02/17 03:39:06;;;;;;;;;;;;;;;9.24;100.00;102655.47;5085012;28;20203;-80
2024/02/17 03:41:31;;;;;;;;;;;;;;;9.19;100.00;102657.25;5077186;28;19995;-79
2024/02/17 03:43:56;;;;;;;;;;;;;;;9.16;100.00;102657.25;5077195;28;19939;-79
2024/02/17 03:46:22;;;;;;;;;;;;;;;9.19;100.00;102662.47;5084313;28;19913;-79
2024/02/17 03:48:47;;;;;;;;;;;;;;;9.21;100.00;102668.56;5075259;28;19909;-79
2024/02/17 03:51:12;;;;;;;;;;;;;;;9.21;100.00;102668.56;5074418;28;19916;-79
2024/02/17 03:53:37;;;;;;;;;;;;;;;9.18;100.00;102665.94;5095729;28;20173;-79
2024/02/17 03:56:03;;;;;;;;;;;;;;;9.16;100.00;102665.94;5095604;28;19916;-79
2024/02/17 03:58:29;;;;;;;;;;;;;;;9.20;100.00;102672.03;5095340;28;20150;-79
2024/02/17 04:00:54;;;;;;;;;;;;;;;9.19;100.00;102678.16;5092253;28;19921;-80
2024/02/17 04:03:19;;;;;;;;;;;;;;;9.21;100.00;102687.72;5083596;28;20203;-79
2024/02/17 04:05:44;;;;;;;;;;;;;;;9.22;100.00;102684.22;5098186;28;19920;-79
2024/02/17 04:08:09;;;;;;;;;;;;;;;9.20;100.00;102692.94;5086444;28;19938;-79
2024/02/17 04:10:35;;;;;;;;;;;;;;;9.20;100.00;102688.59;5091579;28;19923;-80
2024/02/17 04:13:00;;;;;;;;;;;;;;;9.16;100.00;102683.38;5089142;28;19920;-80
2024/02/17 04:15:26;;;;;;;;;;;;;;;9.10;100.00;102699.13;5078795;28;20215;-79
2024/02/17 04:17:53;;;;;;;;;;;;;;;9.08;100.00;102696.50;5064768;28;19920;-79
2024/02/17 04:20:18;;;;;;;;;;;;;;;9.06;100.00;102698.25;5082886;28;19920;-79
2024/02/17 04:22:43;;;;;;;;;;;;;;;9.05;100.00;102703.47;5083482;28;19961;-79
2024/02/17 04:25:09;;;;;;;;;;;;;;;9.07;100.00;102713.03;5059175;28;19920;-79
2024/02/17 04:27:34;;;;;;;;;;;;;;;9.12;100.00;102720.88;5083716;28;19935;-79
2024/02/17 04:29:59;;;;;;;;;;;;;;;9.12;100.00;102719.13;5077114;28;20170;-79
2024/02/17 04:32:25;;;;;;;;;;;;;;;9.11;100.00;102722.59;5075605;28;19916;-80
2024/02/17 04:34:50;;;;;;;;;;;;;;;9.13;100.00;102727.81;5075548;28;20014;-79
2024/02/17 04:37:15;;;;;;;;;;;;;;;9.14;100.00;102733.06;5076129;28;19920;-79
2024/02/17 04:39:41;;;;;;;;;;;;;;;9.17;100.00;102734.81;5083709;28;20249;-80
2024/02/17 04:42:06;;;;;;;;;;;;;;;9.14;100.00;102740.91;5096684;28;20104;-79
2024/02/17 04:44:31;;;;;;;;;;;;;;;9.17;100.00;102740.03;5096404;28;19916;-79
2024/02/17 04:46:57;;;;;;;;;;;;;;;9.18;100.00;102742.59;5096271;28;20201;-79
2024/02/17 04:49:22;;;;;;;;;;;;;;;9.16;100.00;102746.97;5096222;28;20261;-79
2024/02/17 04:51:48;;;;;;;;;;;;;;;9.16;100.00;102746.13;5097229;28;19916;-80
2024/02/17 04:54:13;;;;;;;;;;;;;;;9.18;100.00;102749.59;5097112;28;19987;-80
2024/02/17 04:56:38;;;;;;;;;;;;;;;9.17;100.00;102753.09;5097469;28;19955;-79
2024/02/17 04:59:03;;;;;;;;;;;;;;;9.17;100.00;102753.97;5096565;28;19915;-79
2024/02/17 05:01:29;;;;;;;;;;;;;;;9.17;100.00;102750.50;5097905;28;19923;-79
2024/02/17 05:03:54;;;;;;;;;;;;;;;9.16;100.00;102760.06;5079266;28;19912;-79
2024/02/17 05:06:21;;;;;;;;;;;;;;;9.18;100.00;102762.66;5098327;28;19920;-79
2024/02/17 05:08:46;;;;;;;;;;;;;;;9.18;100.00;102763.53;5079893;28;20165;-79
2024/02/17 05:11:12;;;;;;;;;;;;;;;9.20;100.00;102771.38;5077427;28;19921;-79
2024/02/17 05:13:38;;;;;;;;;;;;;;;9.18;100.00;102771.38;5059346;28;19917;-79
2024/02/17 05:16:03;;;;;;;;;;;;;;;9.18;100.00;102775.72;5076246;28;19983;-79
2024/02/17 05:18:28;;;;;;;;;;;;;;;9.18;100.00;102768.75;5077578;28;19908;-79
2024/02/17 05:20:54;;;;;;;;;;;;;;;9.18;100.00;102780.97;5077201;28;19962;-79
2024/02/17 05:23:19;;;;;;;;;;;;;;;9.19;100.00;102787.94;5077200;28;19991;-79
2024/02/17 05:25:45;;;;;;;;;;;;;;;9.18;100.00;102794.91;5059057;28;19978;-80
2024/02/17 05:28:10;;;;;;;;;;;;;;;9.18;100.00;102797.50;5059026;28;19920;-79
2024/02/17 05:30:35;;;;;;;;;;;;;;;9.17;100.00;102800.16;5077424;28;19979;-79
2024/02/17 05:33:01;;;;;;;;;;;;;;;9.18;100.00;102807.09;5076888;28;19966;-79
2024/02/17 05:35:26;;;;;;;;;;;;;;;9.16;100.00;102812.34;5077305;28;19943;-79
2024/02/17 05:37:51;;;;;;;;;;;;;;;9.17;100.00;102808.84;5076604;28;19984;-79
2024/02/17 05:40:16;;;;;;;;;;;;;;;9.18;100.00;102822.78;5076597;28;19983;-79
2024/02/17 05:42:43;;;;;;;;;;;;;;;9.18;100.00;102817.56;5058875;28;20186;-79
2024/02/17 05:45:09;;;;;;;;;;;;;;;9.19;100.00;102829.78;5076364;28;19917;-79
2024/02/17 05:47:34;;;;;;;;;;;;;;;9.17;100.00;102827.16;5077059;28;19931;-80
2024/02/17 05:50:00;;;;;;;;;;;;;;;9.17;100.00;102824.53;5076115;28;19958;-79
2024/02/17 05:52:25;;;;;;;;;;;;;;;9.16;100.00;102827.16;5076959;28;19916;-79
2024/02/17 05:54:50;;;;;;;;;;;;;;;9.17;100.00;102824.53;5058283;28;19924;-80
2024/02/17 05:57:16;;;;;;;;;;;;;;;9.16;100.00;102820.19;5076736;28;19983;-79
2024/02/17 05:59:41;;;;;;;;;;;;;;;9.16;100.00;102820.19;5076697;28;19916;-79
2024/02/17 06:02:06;;;;;;;;;;;;;;;9.14;100.00;102821.06;5076394;28;20150;-79
2024/02/17 06:04:31;;;;;;;;;;;;;;;9.13;100.00;102824.53;5076699;28;20104;-79
2024/02/17 06:06:57;;;;;;;;;;;;;;;9.11;100.00;102827.16;5076638;28;19920;-79
2024/02/17 06:09:22;;;;;;;;;;;;;;;9.13;100.00;102835.00;5076567;28;19908;-79
2024/02/17 06:11:50;;;;;;;;;;;;;;;9.13;100.00;102835.00;5058790;28;20008;-79
2024/02/17 06:14:15;;;;;;;;;;;;;;;9.12;100.00;102843.72;5076610;28;19916;-80
2024/02/17 06:16:41;;;;;;;;;;;;;;;9.11;100.00;102850.69;5058662;28;19951;-80
2024/02/17 06:21:50;;;;;;;;;;;;;;;9.08;100.00;102855.03;5076162;28;20284;-79
2024/02/17 06:24:15;;;;;;;;;;;;;;;9.07;100.00;102851.56;5075869;28;19916;-79
2024/02/17 06:26:40;;;;;;;;;;;;;;;9.07;100.00;102862.03;5076155;28;19953;-79
2024/02/17 06:29:06;;;;;;;;;;;;;;;9.02;100.00;102864.66;5075273;28;19971;-80
2024/02/17 06:31:32;;;;;;;;;;;;;;;9.01;100.00;102867.28;5076570;28;19935;-79
2024/02/17 06:33:57;;;;;;;;;;;;;;;9.00;100.00;102871.66;5054484;28;19916;-79
2024/02/17 06:36:22;;;;;;;;;;;;;;;9.00;100.00;102879.47;5056053;28;19917;-79
2024/02/17 06:38:51;;;;;;;;;;;;;;;8.98;100.00;102878.59;5056424;28;19917;-79
2024/02/17 06:41:17;;;;;;;;;;;;;;;8.97;100.00;102884.69;5055817;28;19916;-79
2024/02/17 06:43:42;;;;;;;;;;;;;;;8.96;100.00;102885.56;5055959;28;19909;-80
2024/02/17 06:46:07;;;;;;;;;;;;;;;8.97;100.00;102889.94;5055563;28;20209;-79
2024/02/17 06:48:33;;;;;;;;;;;;;;;8.98;100.00;102893.41;5055774;28;20471;-80
2024/02/17 06:50:58;;;;;;;;;;;;;;;8.95;100.00;102896.00;5055619;28;19924;-79
2024/02/17 06:53:23;;;;;;;;;;;;;;;8.92;100.00;102896.91;5055934;28;20142;-79
2024/02/17 06:55:49;;;;;;;;;;;;;;;8.92;100.00;102902.13;5055837;28;19916;-79
2024/02/17 06:58:14;;;;;;;;;;;;;;;8.96;100.00;102903.00;5055702;28;19917;-80
2024/02/17 07:00:39;;;;;;;;;;;;;;;8.98;100.00;102911.69;5056029;28;19916;-79
2024/02/17 07:03:05;;;;;;;;;;;;;;;8.97;100.00;102921.28;5054906;28;20171;-79
2024/02/17 07:05:33;;;;;;;;;;;;;;;8.99;100.00;102930.00;5055968;28;19983;-79
2024/02/17 07:07:59;;;;;;;;;;;;;;;9.00;100.00;102926.53;5054002;28;19925;-79
2024/02/17 07:10:24;;;;;;;;;;;;;;;9.01;100.00;102933.47;5055707;28;19916;-79
2024/02/17 07:12:50;;;;;;;;;;;;;;;9.01;100.00;102938.72;5055097;28;19916;-79
2024/02/17 07:15:16;;;;;;;;;;;;;;;9.00;100.00;102942.22;5055445;28;19943;-79
2024/02/17 07:17:42;;;;;;;;;;;;;;;8.97;100.00;102939.59;5055774;28;20257;-79
2024/02/17 07:20:08;;;;;;;;;;;;;;;8.93;100.00;102940.47;5054631;28;19909;-80
2024/02/17 07:22:33;;;;;;;;;;;;;;;8.94;100.00;102947.41;5055780;28;19944;-79
2024/02/17 07:24:58;;;;;;;;;;;;;;;8.91;100.00;102954.38;5055430;28;20373;-79
2024/02/17 07:27:24;;;;;;;;;;;;;;;8.87;100.00;102960.50;5054998;28;19988;-80
2024/02/17 07:29:49;;;;;;;;;;;;;;;8.85;100.00;102965.72;5055074;28;19924;-80
2024/02/17 07:32:15;;;;;;;;;;;;;;;8.87;100.00;102961.34;5054334;28;19916;-79
2024/02/17 07:34:42;;;;;;;;;;;;;;;8.89;100.00;102969.19;5055109;28;20181;-79
2024/02/17 07:37:07;;;;;;;;;;;;;;;8.91;100.00;102967.44;5054728;28;19921;-79
2024/02/17 07:39:35;;;;;;;;;;;;;;;8.91;100.00;102977.91;5056373;28;19958;-79
2024/02/17 07:42:01;;;;;;;;;;;;;;;8.91;100.00;102977.91;5091065;28;19923;-79
2024/02/17 07:44:26;;;;;;;;;;;;;;;8.86;100.00;102972.69;5059040;28;20211;-79
2024/02/17 07:46:52;;;;;;;;;;;;;;;8.88;100.00;102981.41;5059132;28;19955;-79
2024/02/17 07:49:17;;;;;;;;;;;;;;;8.86;100.00;102985.75;5058920;28;19959;-80
2024/02/17 07:51:46;;;;;;;;;;;;;;;8.86;100.00;102990.97;5058346;28;19998;-79
2024/02/17 07:54:11;;;;;;;;;;;;;;;8.82;100.00;102999.66;5058831;28;19987;-79
2024/02/17 07:56:36;;;;;;;;;;;;;;;8.82;100.00;103000.56;5059691;28;20147;-79
2024/02/17 07:59:03;;;;;;;;;;;;;;;8.82;100.00;102999.66;5058636;28;20199;-79
2024/02/17 08:01:28;;;;;;;;;;;;;;;8.79;100.00;103005.78;5059312;28;19916;-80
2024/02/17 08:03:53;;;;;;;;;;;;;;;8.79;100.00;103008.38;5090833;28;20015;-79
2024/02/17 08:06:19;;;;;;;;;;;;;;;8.79;100.00;103008.38;5053581;28;19925;-79
2024/02/17 08:08:45;;;;;;;;;;;;;;;8.81;100.00;103008.41;5061334;28;19944;-79
2024/02/17 08:11:10;;;;;;;;;;;;;;;8.82;100.00;103015.34;5065636;28;20094;-79
2024/02/17 08:13:35;;;;;;;;;;;;;;;8.86;100.00;103022.34;5065090;28;19924;-79
2024/02/17 08:16:00;;;;;;;;;;;;;;;8.88;100.00;103020.59;5059963;28;19921;-78
2024/02/17 08:18:26;;;;;;;;;;;;;;;8.85;100.00;103023.19;5065623;28;19916;-79
2024/02/17 08:20:52;;;;;;;;;;;;;;;8.86;100.00;103034.50;5066660;28;19920;-79
2024/02/17 08:23:17;;;;;;;;;;;;;;;8.88;100.00;103025.81;5067891;28;20266;-79
2024/02/17 08:25:42;;;;;;;;;;;;;;;8.93;100.00;103031.94;5062941;28;19940;-79
2024/02/17 08:28:07;;;;;;;;;;;;;;;8.97;100.00;103031.06;5057818;28;19927;-78
2024/02/17 08:30:32;;;;;;;;;;;;;;;8.99;100.00;103031.94;5067477;28;19924;-79
2024/02/17 08:32:58;;;;;;;;;;;;;;;9.01;100.00;103035.41;5074120;28;19924;-78
2024/02/17 08:35:23;;;;;;;;;;;;;;;9.05;100.00;103045.88;5088703;28;19916;-78
2024/02/17 08:37:48;;;;;;;;;;;;;;;9.06;100.00;103052.84;5069669;28;19917;-79
2024/02/17 08:40:13;;;;;;;;;;;;;;;9.04;100.00;103060.69;5089381;28;19923;-79
2024/02/17 08:42:39;;;;;;;;;;;;;;;9.00;100.00;103065.06;5082611;28;19920;-79
2024/02/17 08:45:04;;;;;;;;;;;;;;;8.98;100.00;103064.16;5078000;28;19962;-79
2024/02/17 08:47:29;;;;;;;;;;;;;;;9.00;100.00;103070.28;5094003;28;19960;-79
2024/02/17 08:49:55;;;;;;;;;;;;;;;9.01;100.00;103069.38;5087165;28;19980;-79
2024/02/17 08:52:20;;;;;;;;;;;;;;;9.01;100.00;103068.53;5092158;28;20012;-79
2024/02/17 08:54:46;;;;;;;;;;;;;;;9.01;100.00;103068.53;5076297;28;19943;-79
2024/02/17 08:57:11;;;;;;;;;;;;;;;9.02;100.00;103072.88;5074961;28;20195;-79
2024/02/17 08:59:36;;;;;;;;;;;;;;;9.07;100.00;103072.88;5078668;28;19972;-79
2024/02/17 09:02:02;;;;;;;;;;;;;;;9.07;100.00;103080.72;5077171;28;20001;-78
2024/02/17 09:04:27;;;;;;;;;;;;;;;9.05;100.00;103078.09;5077594;28;19924;-78
2024/02/17 09:06:52;;;;;;;;;;;;;;;9.10;100.00;103081.59;5059319;28;19932;-79
2024/02/17 09:09:18;;;;;;;;;;;;;;;9.12;100.00;103077.25;5078824;28;19916;-79
2024/02/17 09:11:45;;;;;;;;;;;;;;;9.13;100.00;103083.34;5077433;28;19916;-79
2024/02/17 09:14:10;;;;;;;;;;;;;;;9.14;100.00;103078.13;5076686;28;19920;-79
2024/02/17 09:16:35;;;;;;;;;;;;;;;9.14;100.00;103078.13;5077384;28;19933;-79
2024/02/17 09:19:01;;;;;;;;;;;;;;;9.18;100.00;103079.00;5076692;28;19943;-78
2024/02/17 09:21:26;;;;;;;;;;;;;;;9.18;100.00;103085.09;5077486;28;19962;-78
2024/02/17 09:23:51;;;;;;;;;;;;;;;9.22;100.00;103089.47;5073992;28;19924;-78
2024/02/17 09:26:16;;;;;;;;;;;;;;;9.22;100.00;103086.84;5076781;28;20124;-79
2024/02/17 09:28:42;;;;;;;;;;;;;;;9.26;100.00;103090.34;5073700;28;19970;-79
2024/02/17 09:31:07;;;;;;;;;;;;;;;9.25;100.00;103091.19;5040791;28;19928;-79
2024/02/17 09:33:32;;;;;;;;;;;;;;;9.29;100.00;103098.16;5059527;28;20189;-78
2024/02/17 09:35:58;;;;;;;;;;;;;;;9.28;100.00;103098.16;5057709;28;20162;-79
2024/02/17 09:38:23;;;;;;;;;;;;;;;9.31;100.00;103103.41;5068068;28;19983;-79
2024/02/17 09:40:51;;;;;;;;;;;;;;;9.32;100.00;103105.16;5069208;28;19924;-79
2024/02/17 09:43:16;;;;;;;;;;;;;;;9.32;100.00;103110.41;5069588;28;19917;-79
2024/02/17 09:45:41;;;;;;;;;;;;;;;9.34;100.00;103109.50;5071513;28;20108;-79
2024/02/17 09:48:07;;;;;;;;;;;;;;;9.33;100.00;103113.00;5054020;28;19944;-79
2024/02/17 09:50:35;;;;;;;;;;;;;;;9.32;100.00;103111.25;5062169;28;20200;-79
2024/02/17 09:53:05;;;;;;;;;;;;;;;9.34;100.00;103111.25;5057149;28;19998;-79
2024/02/17 09:55:30;;;;;;;;;;;;;;;9.34;100.00;103112.13;5040873;28;19920;-79
2024/02/17 09:57:56;;;;;;;;;;;;;;;9.36;100.00;103104.28;5060106;28;19916;-79
2024/02/17 10:00:21;;;;;;;;;;;;;;;9.41;100.00;103106.03;5057511;28;19951;-79
2024/02/17 10:02:48;;;;;;;;;;;;;;;9.45;100.00;103111.28;5063939;28;20114;-79
2024/02/17 10:05:15;;;;;;;;;;;;;;;9.49;100.00;103118.25;5065869;28;19931;-79
2024/02/17 10:07:47;;;;;;;;;;;;;;;9.45;100.00;103119.13;5071193;28;20284;-79
2024/02/17 10:10:13;;;;;;;;;;;;;;;9.47;100.00;103113.00;5069514;28;19916;-79
2024/02/17 10:12:54;;;;;;;;;;;;;;;9.49;100.00;103118.25;5071941;28;19951;-79
2024/02/17 10:15:21;;;;;;;;;;;;;;;9.51;100.00;103119.09;5074554;28;20438;-79
2024/02/17 10:17:47;;;;;;;;;;;;;;;9.54;100.00;103116.50;5067713;28;19917;-79
2024/02/17 10:20:12;;;;;;;;;;;;;;;9.54;100.00;103124.34;5080320;28;19921;-79
2024/02/17 10:22:38;;;;;;;;;;;;;;;9.56;100.00;103133.06;5059264;28;19944;-79
2024/02/17 10:25:03;;;;;;;;;;;;;;;9.57;100.00;103137.44;5056495;28;19920;-79
2024/02/17 10:27:29;;;;;;;;;;;;;;;9.63;100.00;103142.66;5061002;28;19920;-79
2024/02/17 10:30:07;;;;;;;;;;;;;;;9.68;100.00;103151.38;5070173;28;19928;-79
2024/02/17 10:32:32;;;;;;;;;;;;;;;9.72;100.00;103149.66;5052522;28;20209;-79
2024/02/17 10:34:58;;;;;;;;;;;;;;;9.69;100.00;103153.13;5071870;28;19908;-79
2024/02/17 10:37:24;;;;;;;;;;;;;;;9.70;100.00;103152.25;5071907;28;20130;-79
2024/02/17 10:39:50;;;;;;;;;;;;;;;9.71;100.00;103158.34;5070472;28;19986;-79
2024/02/17 10:42:15;;;;;;;;;;;;;;;9.71;100.00;103166.19;5069584;28;20034;-79
2024/02/17 10:44:40;;;;;;;;;;;;;;;9.72;100.00;103163.59;5071665;28;20142;-79
2024/02/17 10:47:06;;;;;;;;;;;;;;;9.78;100.00;103168.81;5069343;28;19920;-79
2024/02/17 10:49:38;;;;;;;;;;;;;;;9.80;100.00;103168.81;5070214;28;20427;-79
2024/02/17 10:52:04;;;;;;;;;;;;;;;9.79;100.00;103169.72;5068997;28;20061;-79
2024/02/17 10:54:48;;;;;;;;;;;;;;;9.80;100.00;103171.44;5070608;28;20110;-79
2024/02/17 10:57:16;;;;;;;;;;;;;;;9.80;100.00;103174.06;5070462;28;19916;-79
2024/02/17 10:59:45;;;;;;;;;;;;;;;9.84;100.00;103183.66;5069858;28;20134;-79
2024/02/17 11:02:15;;;;;;;;;;;;;;;9.89;100.00;103188.88;5068513;28;19916;-79
2024/02/17 11:04:40;;;;;;;;;;;;;;;9.89;100.00;103183.66;5052409;28;19920;-79
2024/02/17 11:07:05;;;;;;;;;;;;;;;9.88;100.00;103190.63;5070470;28;20030;-79
2024/02/17 11:09:31;;;;;;;;;;;;;;;9.89;100.00;103200.22;5067371;28;20929;-79
2024/02/17 11:12:16;;;;;;;;;;;;;;;9.94;100.00;103201.09;5068426;28;19983;-79
2024/02/17 11:14:42;;;;;;;;;;;;;;;9.98;100.00;103205.44;5071357;28;19921;-79
2024/02/17 11:17:11;;;;;;;;;;;;;;;10.03;100.00;103208.06;5072095;28;19983;-79
2024/02/17 11:19:39;;;;;;;;;;;;;;;10.04;100.00;103211.56;5073188;28;20100;-79
2024/02/17 11:22:07;;;;;;;;;;;;;;;10.09;100.00;103215.06;5054364;28;19916;-79
2024/02/17 11:24:35;;;;;;;;;;;;;;;10.10;100.00;103212.44;5074166;28;20174;-79
2024/02/17 11:27:00;;;;;;;;;;;;;;;10.14;100.00;103208.06;5074749;28;19928;-79
2024/02/17 11:29:30;;;;;;;;;;;;;;;10.14;100.00;103202.84;5073931;28;19908;-79
2024/02/17 11:32:00;;;;;;;;;;;;;;;10.11;100.00;103205.44;5073031;28;19916;-79
2024/02/17 11:34:27;;;;;;;;;;;;;;;10.12;100.00;103209.81;5074879;28;19960;-79
2024/02/17 11:36:52;;;;;;;;;;;;;;;10.13;100.00;103207.22;5072019;28;20144;-79
2024/02/17 11:39:18;;;;;;;;;;;;;;;10.17;100.00;103208.06;5055545;28;19920;-79
2024/02/17 11:41:44;;;;;;;;;;;;;;;10.19;100.00;103207.19;5075267;28;19916;-79
2024/02/17 11:44:10;;;;;;;;;;;;;;;10.25;100.00;103205.44;5075049;28;19927;-79
2024/02/17 11:46:35;;;;;;;;;;;;;;;10.31;100.00;103213.31;5075227;28;19920;-79
2024/02/17 11:49:10;;;;;;;;;;;;;;;10.35;100.00;103215.94;5071338;28;20103;-79
2024/02/17 11:51:36;;;;;;;;;;;;;;;10.41;100.00;103214.19;5057261;28;20215;-79
2024/02/17 11:54:02;;;;;;;;;;;;;;;10.43;100.00;103212.44;5074508;28;19912;-79
2024/02/17 11:56:28;;;;;;;;;;;;;;;10.45;100.00;103205.44;5070841;28;19946;-79
2024/02/17 11:58:54;;;;;;;;;;;;;;;10.47;100.00;103212.41;5073241;28;20308;-79
2024/02/17 12:01:19;;;;;;;;;;;;;;;10.48;100.00;103219.41;5070828;28;19916;-78
2024/02/17 12:03:44;;;;;;;;;;;;;;;10.45;100.00;103219.41;5070412;28;20108;-79
2024/02/17 12:06:10;;;;;;;;;;;;;;;10.45;100.00;103216.78;5072405;28;20023;-79
2024/02/17 12:08:36;;;;;;;;;;;;;;;10.42;100.00;103219.41;5069481;28;20087;-79
2024/02/17 12:11:01;;;;;;;;;;;;;;;10.43;100.00;103215.06;5071995;28;19916;-79
2024/02/17 12:13:27;;;;;;;;;;;;;;;10.42;100.00;103213.28;5069876;28;19983;-79
2024/02/17 12:15:52;;;;;;;;;;;;;;;10.41;100.00;103211.56;5060319;28;19917;-79
2024/02/17 12:18:18;;;;;;;;;;;;;;;10.40;100.00;103220.28;5059039;28;19931;-79
2024/02/17 12:20:43;;;;;;;;;;;;;;;10.38;100.00;103210.66;5064982;28;19924;-79
2024/02/17 12:23:09;;;;;;;;;;;;;;;10.40;100.00;103210.66;5052900;28;20019;-79
2024/02/17 12:25:35;;;;;;;;;;;;;;;10.40;100.00;103208.06;5065566;28;19944;-79
2024/02/17 12:28:01;;;;;;;;;;;;;;;10.41;100.00;103209.81;5037064;28;19955;-79
2024/02/17 12:30:26;;;;;;;;;;;;;;;10.40;100.00;103208.06;5058404;28;19965;-79